Anna Noli — IZEL — position and weather

sailwx.info

Track history (hours):
 
Tides and Currents Weather Stations Pressure Air Temp Water Temp Dewpoint Dewpoint Depression Visibility Wind Speed Wind Dir Waves Ship Positions

Anna Noli

Last reported at 2016-Jul-28 00:33 UTC. Time now 2016-Jul-28 01:01 UTC.
Position N 44°16' E 008°27'.

Length 31 m.

Type: Towing. MMSI: 247046500.

Date/timePositionNaut miles runAvg speedWind from/ knotsBaromVisibWave heightAir tempDewpointWater temp
2016-Jul-28 00:33N 44°16' E 008°27'2 1.9
2016-Jul-27 23:33N 44°17' E 008°29'2 1.7
2016-Jul-27 22:26N 44°16' E 008°27'0 0.0
2016-Jul-27 12:25N 44°16' E 008°27'1 1.0
2016-Jul-27 11:24N 44°17' E 008°28'1 0.1
2016-Jul-26 17:17N 44°16' E 008°27'0 0.0
2016-Jul-26 16:32N 44°16' E 008°27'0 0.0
2016-Jul-26 15:29N 44°16' E 008°27'0 0.0
2016-Jul-26 14:17N 44°16' E 008°27'0 0.0
2016-Jul-26 13:29N 44°16' E 008°27'0 0.0
2016-Jul-26 12:17N 44°16' E 008°27'0 0.0
2016-Jul-26 11:23N 44°16' E 008°27'0 0.0
2016-Jul-26 09:26N 44°16' E 008°27'0 0.0
2016-Jul-26 08:26N 44°16' E 008°27'1 1.0
2016-Jul-26 07:33N 44°16' E 008°28'1 0.5
2016-Jul-26 06:31N 44°17' E 008°28'1 1.3
2016-Jul-26 05:33N 44°16' E 008°29'1 1.3
2016-Jul-26 04:32N 44°16' E 008°27'0 0.0
2016-Jul-24 17:20N 44°16' E 008°27'0 0.0
2016-Jul-24 16:32N 44°16' E 008°27'0 0.0
2016-Jul-24 15:32N 44°16' E 008°27'0 0.0
2016-Jul-24 14:32N 44°16' E 008°27'0 0.0
2016-Jul-24 13:32N 44°16' E 008°27'0 0.0
2016-Jul-24 12:32N 44°16' E 008°27'0 0.0
2016-Jul-24 11:32N 44°16' E 008°27'4 3.9
2016-Jul-24 10:33N 44°19' E 008°30'4 3.5
2016-Jul-24 09:29N 44°16' E 008°27'0 0.0
2016-Jul-24 08:29N 44°16' E 008°27'0 0.0
2016-Jul-24 07:29N 44°16' E 008°27'0 0.0
2016-Jul-24 06:32N 44°16' E 008°27'0 0.0
2016-Jul-24 05:29N 44°16' E 008°27'0 0.0
2016-Jul-24 04:32N 44°16' E 008°27'0 0.0
2016-Jul-24 03:23N 44°16' E 008°27'0 0.0
2016-Jul-23 15:32N 44°16' E 008°27'0 0.0
2016-Jul-23 14:32N 44°16' E 008°27'0 0.0
2016-Jul-23 13:32N 44°16' E 008°27'0 0.0
2016-Jul-23 12:32N 44°16' E 008°27'0 0.0
2016-Jul-23 11:32N 44°16' E 008°27'0 0.0
2016-Jul-23 10:32N 44°16' E 008°27'0 0.0
2016-Jul-23 09:32N 44°16' E 008°27'0 0.0
2016-Jul-23 08:32N 44°16' E 008°27'0 0.0
2016-Jul-23 07:32N 44°16' E 008°27'0 0.0
2016-Jul-23 06:32N 44°16' E 008°27'0 0.0
2016-Jul-23 04:32N 44°16' E 008°27'0 0.0
2016-Jul-23 03:32N 44°16' E 008°27'0 0.0
2016-Jul-23 02:29N 44°16' E 008°27'0 0.0
2016-Jul-23 01:32N 44°16' E 008°27'0 0.0
2016-Jul-23 00:32N 44°16' E 008°27'0 0.0
2016-Jul-22 23:32N 44°16' E 008°27'0 0.0
2016-Jul-22 22:32N 44°16' E 008°27'0 0.0
2016-Jul-22 21:32N 44°16' E 008°27'0 0.0
2016-Jul-22 20:32N 44°16' E 008°27'0 0.0
2016-Jul-22 19:32N 44°16' E 008°27'0 0.0
2016-Jul-22 18:32N 44°16' E 008°27'0 0.0
2016-Jul-22 17:23N 44°16' E 008°27'0 0.0
2016-Jul-22 16:32N 44°16' E 008°27'0 0.0
2016-Jul-22 15:32N 44°16' E 008°27'0 0.0
2016-Jul-22 14:32N 44°16' E 008°27'0 0.0
2016-Jul-22 13:32N 44°16' E 008°27'0 0.0
2016-Jul-22 12:32N 44°16' E 008°27'0 0.0
2016-Jul-22 11:32N 44°16' E 008°27'0 0.0
2016-Jul-22 10:32N 44°16' E 008°27'0 0.0
2016-Jul-22 09:32N 44°16' E 008°27'0 0.0
2016-Jul-22 08:32N 44°16' E 008°27'1 0.6
2016-Jul-22 07:33N 44°16' E 008°27'1 0.5
2016-Jul-22 05:33N 44°16' E 008°28'1 0.7
2016-Jul-22 04:33N 44°16' E 008°28'1 0.9
2016-Jul-22 03:32N 44°16' E 008°27'0 0.0
2016-Jul-22 02:29N 44°16' E 008°27'0 0.0
2016-Jul-22 01:29N 44°16' E 008°27'0 0.0
2016-Jul-22 00:29N 44°16' E 008°27'0 0.0
2016-Jul-21 23:32N 44°16' E 008°27'0 0.0
2016-Jul-21 22:29N 44°16' E 008°27'0 0.0
2016-Jul-21 21:29N 44°16' E 008°27'0 0.0
2016-Jul-21 20:29N 44°16' E 008°27'0 0.0
2016-Jul-21 19:29N 44°16' E 008°27'0 0.0
2016-Jul-21 18:29N 44°16' E 008°27'0 0.0
2016-Jul-21 17:29N 44°16' E 008°27'4 3.9
2016-Jul-21 16:33N 44°19' E 008°30'0 0.2
2016-Jul-21 15:34N 44°19' E 008°30'0 0.0
2016-Jul-21 14:34N 44°19' E 008°30'4 3.2
2016-Jul-21 13:24N 44°16' E 008°27'0 0.0
2016-Jul-21 12:30N 44°16' E 008°27'0 0.0
2016-Jul-21 11:30N 44°16' E 008°27'0 0.0
2016-Jul-21 10:30N 44°16' E 008°27'0 0.0
2016-Jul-21 09:30N 44°16' E 008°27'0 0.0
2016-Jul-21 08:31N 44°16' E 008°27'0 0.0
2016-Jul-21 07:31N 44°16' E 008°27'0 0.0
2016-Jul-21 06:31N 44°16' E 008°27'0 0.0
2016-Jul-21 05:31N 44°16' E 008°27'1 0.9
2016-Jul-21 04:31N 44°16' E 008°28'1 0.9
2016-Jul-21 03:32N 44°16' E 008°27'0 0.0
2016-Jul-21 02:32N 44°16' E 008°27'0 0.0
2016-Jul-21 01:32N 44°16' E 008°27'0 0.0
2016-Jul-21 00:32N 44°16' E 008°27'0 0.0
2016-Jul-20 23:32N 44°16' E 008°27'0 0.0
2016-Jul-20 22:32N 44°16' E 008°27'0 0.0
2016-Jul-20 21:32N 44°16' E 008°27'0 0.0
2016-Jul-20 20:32N 44°16' E 008°27'0 0.0
2016-Jul-20 19:32N 44°16' E 008°27'0 0.0
2016-Jul-20 18:32N 44°16' E 008°27'0 0.0
2016-Jul-20 17:32N 44°16' E 008°27'0 0.0
2016-Jul-20 16:32N 44°16' E 008°27'0 0.0
2016-Jul-20 15:32N 44°16' E 008°27'0 0.0
2016-Jul-20 14:32N 44°16' E 008°27'0 0.0
2016-Jul-20 13:32N 44°16' E 008°27'0 0.0
2016-Jul-20 12:32N 44°16' E 008°27'0 0.0
2016-Jul-20 11:32N 44°16' E 008°27'0 0.0
2016-Jul-20 10:32N 44°16' E 008°27'0 0.0
2016-Jul-20 09:32N 44°16' E 008°27'0 0.0
2016-Jul-20 08:32N 44°16' E 008°27'0 0.0
2016-Jul-20 07:32N 44°16' E 008°27'0 0.0
2016-Jul-20 06:32N 44°16' E 008°27'0 0.0
2016-Jul-20 05:32N 44°16' E 008°27'2 1.6
2016-Jul-20 04:31N 44°17' E 008°28'2 1.6
2016-Jul-20 03:33N 44°16' E 008°27'0 0.0
2016-Jul-20 02:33N 44°16' E 008°27'0 0.0
2016-Jul-20 01:33N 44°16' E 008°27'0 0.0
2016-Jul-20 00:33N 44°16' E 008°27'0 0.0
2016-Jul-19 23:33N 44°16' E 008°27'0 0.0
2016-Jul-19 22:33N 44°16' E 008°27'0 0.0
2016-Jul-19 21:33N 44°16' E 008°27'0 0.0
2016-Jul-19 20:33N 44°16' E 008°27'0 0.0
2016-Jul-19 19:33N 44°16' E 008°27'0 0.0
2016-Jul-19 18:33N 44°16' E 008°27'0 0.0
2016-Jul-19 17:33N 44°16' E 008°27'0 0.0
2016-Jul-19 16:33N 44°16' E 008°27'0 0.0
2016-Jul-19 15:33N 44°16' E 008°27'0 0.0
2016-Jul-19 14:33N 44°16' E 008°27'0 0.0
2016-Jul-19 13:33N 44°16' E 008°27'0 0.0
2016-Jul-19 12:33N 44°16' E 008°27'0 0.0
2016-Jul-19 11:33N 44°16' E 008°27'0 0.0
2016-Jul-19 10:33N 44°16' E 008°27'0 0.0
2016-Jul-19 09:33N 44°16' E 008°27'0 0.0
2016-Jul-19 08:33N 44°16' E 008°27'0 0.0
2016-Jul-19 07:33N 44°16' E 008°27'0 0.0
2016-Jul-19 04:33N 44°16' E 008°27'0 0.0
2016-Jul-19 03:33N 44°16' E 008°27'0 0.0
2016-Jul-19 02:33N 44°16' E 008°27'0 0.0
2016-Jul-19 01:33N 44°16' E 008°27'0 0.0
2016-Jul-19 00:33N 44°16' E 008°27'0 0.0
2016-Jul-18 23:33N 44°16' E 008°27'4 3.6
2016-Jul-18 22:33N 44°19' E 008°30'4 3.6
2016-Jul-18 21:33N 44°16' E 008°27'0 0.0
2016-Jul-18 20:24N 44°16' E 008°27'0 0.0
2016-Jul-18 19:33N 44°16' E 008°27'0 0.0
2016-Jul-18 18:33N 44°16' E 008°27'0 0.0
2016-Jul-18 17:33N 44°16' E 008°27'0 0.0
2016-Jul-18 16:33N 44°16' E 008°27'0 0.0
2016-Jul-18 15:33N 44°16' E 008°27'0 0.0
2016-Jul-18 14:33N 44°16' E 008°27'0 0.0
2016-Jul-18 13:33N 44°16' E 008°27'0 0.0
2016-Jul-18 12:33N 44°16' E 008°27'0 0.0
2016-Jul-18 11:33N 44°16' E 008°27'0 0.0
2016-Jul-18 10:33N 44°16' E 008°27'0 0.0
2016-Jul-18 09:30N 44°16' E 008°27'0 0.0
2016-Jul-18 08:33N 44°16' E 008°27'0 0.0
2016-Jul-18 07:33N 44°16' E 008°27'0 0.0
2016-Jul-18 06:33N 44°16' E 008°27'0 0.0
2016-Jul-18 05:33N 44°16' E 008°27'0 0.0
2016-Jul-18 04:33N 44°16' E 008°27'0 0.0
2016-Jul-18 03:33N 44°16' E 008°27'0 0.0
2016-Jul-18 02:33N 44°16' E 008°27'0 0.0
2016-Jul-18 01:33N 44°16' E 008°27'  
Track history (hours):
 
Tides and Currents Weather Stations Pressure Air Temp Water Temp Dewpoint Dewpoint Depression Visibility Wind Speed Wind Dir Waves Ship Positions

Anna Noli

Last reported at 2016-Jul-28 00:33 UTC. Time now 2016-Jul-28 01:01 UTC.
Position N 44°16' E 008°27'.

Length 31 m.

Type: Towing. MMSI: 247046500.

Date/timePositionNaut miles runAvg speedWind from/ knotsBaromVisibWave heightAir tempDewpointWater temp
2016-Jul-28 00:33N 44°16' E 008°27'2 1.9
2016-Jul-27 23:33N 44°17' E 008°29'2 1.7
2016-Jul-27 22:26N 44°16' E 008°27'0 0.0
2016-Jul-27 12:25N 44°16' E 008°27'1 1.0
2016-Jul-27 11:24N 44°17' E 008°28'1 0.1
2016-Jul-26 17:17N 44°16' E 008°27'0 0.0
2016-Jul-26 16:32N 44°16' E 008°27'0 0.0
2016-Jul-26 15:29N 44°16' E 008°27'0 0.0
2016-Jul-26 14:17N 44°16' E 008°27'0 0.0
2016-Jul-26 13:29N 44°16' E 008°27'0 0.0
2016-Jul-26 12:17N 44°16' E 008°27'0 0.0
2016-Jul-26 11:23N 44°16' E 008°27'0 0.0
2016-Jul-26 09:26N 44°16' E 008°27'0 0.0
2016-Jul-26 08:26N 44°16' E 008°27'1 1.0
2016-Jul-26 07:33N 44°16' E 008°28'1 0.5
2016-Jul-26 06:31N 44°17' E 008°28'1 1.3
2016-Jul-26 05:33N 44°16' E 008°29'1 1.3
2016-Jul-26 04:32N 44°16' E 008°27'0 0.0
2016-Jul-24 17:20N 44°16' E 008°27'0 0.0
2016-Jul-24 16:32N 44°16' E 008°27'0 0.0
2016-Jul-24 15:32N 44°16' E 008°27'0 0.0
2016-Jul-24 14:32N 44°16' E 008°27'0 0.0
2016-Jul-24 13:32N 44°16' E 008°27'0 0.0
2016-Jul-24 12:32N 44°16' E 008°27'0 0.0
2016-Jul-24 11:32N 44°16' E 008°27'4 3.9
2016-Jul-24 10:33N 44°19' E 008°30'4 3.5
2016-Jul-24 09:29N 44°16' E 008°27'0 0.0
2016-Jul-24 08:29N 44°16' E 008°27'0 0.0
2016-Jul-24 07:29N 44°16' E 008°27'0 0.0
2016-Jul-24 06:32N 44°16' E 008°27'0 0.0
2016-Jul-24 05:29N 44°16' E 008°27'0 0.0
2016-Jul-24 04:32N 44°16' E 008°27'0 0.0
2016-Jul-24 03:23N 44°16' E 008°27'0 0.0
2016-Jul-23 15:32N 44°16' E 008°27'0 0.0
2016-Jul-23 14:32N 44°16' E 008°27'0 0.0
2016-Jul-23 13:32N 44°16' E 008°27'0 0.0
2016-Jul-23 12:32N 44°16' E 008°27'0 0.0
2016-Jul-23 11:32N 44°16' E 008°27'0 0.0
2016-Jul-23 10:32N 44°16' E 008°27'0 0.0
2016-Jul-23 09:32N 44°16' E 008°27'0 0.0
2016-Jul-23 08:32N 44°16' E 008°27'0 0.0
2016-Jul-23 07:32N 44°16' E 008°27'0 0.0
2016-Jul-23 06:32N 44°16' E 008°27'0 0.0
2016-Jul-23 04:32N 44°16' E 008°27'0 0.0
2016-Jul-23 03:32N 44°16' E 008°27'0 0.0
2016-Jul-23 02:29N 44°16' E 008°27'0 0.0
2016-Jul-23 01:32N 44°16' E 008°27'0 0.0
2016-Jul-23 00:32N 44°16' E 008°27'0 0.0
2016-Jul-22 23:32N 44°16' E 008°27'0 0.0
2016-Jul-22 22:32N 44°16' E 008°27'0 0.0
2016-Jul-22 21:32N 44°16' E 008°27'0 0.0
2016-Jul-22 20:32N 44°16' E 008°27'0 0.0
2016-Jul-22 19:32N 44°16' E 008°27'0 0.0
2016-Jul-22 18:32N 44°16' E 008°27'0 0.0
2016-Jul-22 17:23N 44°16' E 008°27'0 0.0
2016-Jul-22 16:32N 44°16' E 008°27'0 0.0
2016-Jul-22 15:32N 44°16' E 008°27'0 0.0
2016-Jul-22 14:32N 44°16' E 008°27'0 0.0
2016-Jul-22 13:32N 44°16' E 008°27'0 0.0
2016-Jul-22 12:32N 44°16' E 008°27'0 0.0
2016-Jul-22 11:32N 44°16' E 008°27'0 0.0
2016-Jul-22 10:32N 44°16' E 008°27'0 0.0
2016-Jul-22 09:32N 44°16' E 008°27'0 0.0
2016-Jul-22 08:32N 44°16' E 008°27'1 0.6
2016-Jul-22 07:33N 44°16' E 008°27'1 0.5
2016-Jul-22 05:33N 44°16' E 008°28'1 0.7
2016-Jul-22 04:33N 44°16' E 008°28'1 0.9
2016-Jul-22 03:32N 44°16' E 008°27'0 0.0
2016-Jul-22 02:29N 44°16' E 008°27'0 0.0
2016-Jul-22 01:29N 44°16' E 008°27'0 0.0
2016-Jul-22 00:29N 44°16' E 008°27'0 0.0
2016-Jul-21 23:32N 44°16' E 008°27'0 0.0
2016-Jul-21 22:29N 44°16' E 008°27'0 0.0
2016-Jul-21 21:29N 44°16' E 008°27'0 0.0
2016-Jul-21 20:29N 44°16' E 008°27'0 0.0
2016-Jul-21 19:29N 44°16' E 008°27'0 0.0
2016-Jul-21 18:29N 44°16' E 008°27'0 0.0
2016-Jul-21 17:29N 44°16' E 008°27'4 3.9
2016-Jul-21 16:33N 44°19' E 008°30'0 0.2
2016-Jul-21 15:34N 44°19' E 008°30'0 0.0
2016-Jul-21 14:34N 44°19' E 008°30'4 3.2
2016-Jul-21 13:24N 44°16' E 008°27'0 0.0
2016-Jul-21 12:30N 44°16' E 008°27'0 0.0
2016-Jul-21 11:30N 44°16' E 008°27'0 0.0
2016-Jul-21 10:30N 44°16' E 008°27'0 0.0
2016-Jul-21 09:30N 44°16' E 008°27'0 0.0
2016-Jul-21 08:31N 44°16' E 008°27'0 0.0
2016-Jul-21 07:31N 44°16' E 008°27'0 0.0
2016-Jul-21 06:31N 44°16' E 008°27'0 0.0
2016-Jul-21 05:31N 44°16' E 008°27'1 0.9
2016-Jul-21 04:31N 44°16' E 008°28'1 0.9
2016-Jul-21 03:32N 44°16' E 008°27'0 0.0
2016-Jul-21 02:32N 44°16' E 008°27'0 0.0
2016-Jul-21 01:32N 44°16' E 008°27'0 0.0
2016-Jul-21 00:32N 44°16' E 008°27'0 0.0
2016-Jul-20 23:32N 44°16' E 008°27'0 0.0
2016-Jul-20 22:32N 44°16' E 008°27'0 0.0
2016-Jul-20 21:32N 44°16' E 008°27'0 0.0
2016-Jul-20 20:32N 44°16' E 008°27'0 0.0
2016-Jul-20 19:32N 44°16' E 008°27'0 0.0
2016-Jul-20 18:32N 44°16' E 008°27'0 0.0
2016-Jul-20 17:32N 44°16' E 008°27'0 0.0
2016-Jul-20 16:32N 44°16' E 008°27'0 0.0
2016-Jul-20 15:32N 44°16' E 008°27'0 0.0
2016-Jul-20 14:32N 44°16' E 008°27'0 0.0
2016-Jul-20 13:32N 44°16' E 008°27'0 0.0
2016-Jul-20 12:32N 44°16' E 008°27'0 0.0
2016-Jul-20 11:32N 44°16' E 008°27'0 0.0
2016-Jul-20 10:32N 44°16' E 008°27'0 0.0
2016-Jul-20 09:32N 44°16' E 008°27'0 0.0
2016-Jul-20 08:32N 44°16' E 008°27'0 0.0
2016-Jul-20 07:32N 44°16' E 008°27'0 0.0
2016-Jul-20 06:32N 44°16' E 008°27'0 0.0
2016-Jul-20 05:32N 44°16' E 008°27'2 1.6
2016-Jul-20 04:31N 44°17' E 008°28'2 1.6
2016-Jul-20 03:33N 44°16' E 008°27'0 0.0
2016-Jul-20 02:33N 44°16' E 008°27'0 0.0
2016-Jul-20 01:33N 44°16' E 008°27'0 0.0
2016-Jul-20 00:33N 44°16' E 008°27'0 0.0
2016-Jul-19 23:33N 44°16' E 008°27'0 0.0
2016-Jul-19 22:33N 44°16' E 008°27'0 0.0
2016-Jul-19 21:33N 44°16' E 008°27'0 0.0
2016-Jul-19 20:33N 44°16' E 008°27'0 0.0
2016-Jul-19 19:33N 44°16' E 008°27'0 0.0
2016-Jul-19 18:33N 44°16' E 008°27'0 0.0
2016-Jul-19 17:33N 44°16' E 008°27'0 0.0
2016-Jul-19 16:33N 44°16' E 008°27'0 0.0
2016-Jul-19 15:33N 44°16' E 008°27'0 0.0
2016-Jul-19 14:33N 44°16' E 008°27'0 0.0
2016-Jul-19 13:33N 44°16' E 008°27'0 0.0
2016-Jul-19 12:33N 44°16' E 008°27'0 0.0
2016-Jul-19 11:33N 44°16' E 008°27'0 0.0
2016-Jul-19 10:33N 44°16' E 008°27'0 0.0
2016-Jul-19 09:33N 44°16' E 008°27'0 0.0
2016-Jul-19 08:33N 44°16' E 008°27'0 0.0
2016-Jul-19 07:33N 44°16' E 008°27'0 0.0
2016-Jul-19 04:33N 44°16' E 008°27'0 0.0
2016-Jul-19 03:33N 44°16' E 008°27'0 0.0
2016-Jul-19 02:33N 44°16' E 008°27'0 0.0
2016-Jul-19 01:33N 44°16' E 008°27'0 0.0
2016-Jul-19 00:33N 44°16' E 008°27'0 0.0
2016-Jul-18 23:33N 44°16' E 008°27'4 3.6
2016-Jul-18 22:33N 44°19' E 008°30'4 3.6
2016-Jul-18 21:33N 44°16' E 008°27'0 0.0
2016-Jul-18 20:24N 44°16' E 008°27'0 0.0
2016-Jul-18 19:33N 44°16' E 008°27'0 0.0
2016-Jul-18 18:33N 44°16' E 008°27'0 0.0
2016-Jul-18 17:33N 44°16' E 008°27'0 0.0
2016-Jul-18 16:33N 44°16' E 008°27'0 0.0
2016-Jul-18 15:33N 44°16' E 008°27'0 0.0
2016-Jul-18 14:33N 44°16' E 008°27'0 0.0
2016-Jul-18 13:33N 44°16' E 008°27'0 0.0
2016-Jul-18 12:33N 44°16' E 008°27'0 0.0
2016-Jul-18 11:33N 44°16' E 008°27'0 0.0
2016-Jul-18 10:33N 44°16' E 008°27'0 0.0
2016-Jul-18 09:30N 44°16' E 008°27'0 0.0
2016-Jul-18 08:33N 44°16' E 008°27'0 0.0
2016-Jul-18 07:33N 44°16' E 008°27'0 0.0
2016-Jul-18 06:33N 44°16' E 008°27'0 0.0
2016-Jul-18 05:33N 44°16' E 008°27'0 0.0
2016-Jul-18 04:33N 44°16' E 008°27'0 0.0
2016-Jul-18 03:33N 44°16' E 008°27'0 0.0
2016-Jul-18 02:33N 44°16' E 008°27'0 0.0
2016-Jul-18 01:33N 44°16' E 008°27'  

Dump ship's entire track history